Time;durP1;ratioP1;P1;durP2;ratioP2;P2;SDS_P1;SDS_P2;PMS_P1;PMS_P2;Temp;Humidity;BMP_temperature;BMP_pressure;BME280_temperature;BME280_humidity;BME280_pressure;Samples;Min_cycle;Max_cycle;Signal;HPM_P1;HPM_P2
2023/06/27 00:02:20;;;;;;;;;;;;;;;27.44;46.45;100583.23;102847;1286;66811;-82
2023/06/27 00:04:47;;;;;;;;;;;;;;;27.43;46.49;100582.02;103058;1286;62129;-82
2023/06/27 00:07:12;;;;;;;;;;;;;;;27.43;46.22;100577.50;102964;1286;61393;-82
2023/06/27 00:09:40;;;;;;;;;;;;;;;27.43;46.34;100573.71;102836;1286;59983;-82
2023/06/27 00:12:06;;;;;;;;;;;;;;;27.43;46.43;100575.52;102715;1287;66873;-82
2023/06/27 00:14:33;;;;;;;;;;;;;;;27.43;46.46;100575.70;102776;1286;62170;-82
2023/06/27 00:17:00;;;;;;;;;;;;;;;27.43;46.45;100577.16;102845;1287;61521;-82
2023/06/27 00:19:25;;;;;;;;;;;;;;;27.43;46.33;100576.85;102897;1287;60030;-82
2023/06/27 00:21:51;;;;;;;;;;;;;;;27.42;46.21;100576.16;102744;1287;61479;-82
2023/06/27 00:24:16;;;;;;;;;;;;;;;27.42;46.16;100569.32;103074;1288;60089;-82
2023/06/27 00:26:41;;;;;;;;;;;;;;;27.43;46.41;100572.71;102819;1287;61437;-82
2023/06/27 00:29:07;;;;;;;;;;;;;;;27.43;46.59;100579.02;102836;1287;61368;-82
2023/06/27 00:31:33;;;;;;;;;;;;;;;27.42;46.22;100573.52;102740;1288;60556;-82
2023/06/27 00:33:58;;;;;;;;;;;;;;;27.42;46.62;100573.35;103173;1286;61270;-82
2023/06/27 00:36:24;;;;;;;;;;;;;;;27.42;46.60;100575.65;102805;1290;61444;-82
2023/06/27 00:38:49;;;;;;;;;;;;;;;27.42;46.26;100573.65;102785;1293;60102;-82
2023/06/27 00:41:15;;;;;;;;;;;;;;;27.42;46.48;100574.39;102978;1286;61409;-82
2023/06/27 00:43:40;;;;;;;;;;;;;;;27.42;46.24;100575.51;102800;1287;60052;-82
2023/06/27 00:46:06;;;;;;;;;;;;;;;27.41;46.52;100577.35;102799;1290;61394;-82
2023/06/27 00:48:32;;;;;;;;;;;;;;;27.41;46.55;100571.75;103010;1286;61395;-82
2023/06/27 00:50:57;;;;;;;;;;;;;;;27.42;46.61;100572.80;102899;1286;60297;-82
2023/06/27 00:53:23;;;;;;;;;;;;;;;27.41;46.51;100572.14;102836;1285;61395;-82
2023/06/27 00:55:48;;;;;;;;;;;;;;;27.41;46.50;100574.09;102872;1290;59981;-82
2023/06/27 00:58:14;;;;;;;;;;;;;;;27.41;46.54;100571.92;102752;1288;61457;-82
2023/06/27 01:00:39;;;;;;;;;;;;;;;27.41;46.34;100572.13;102947;1286;61483;-82
2023/06/27 01:03:05;;;;;;;;;;;;;;;27.41;46.35;100570.36;102857;1287;61288;-82
2023/06/27 01:05:30;;;;;;;;;;;;;;;27.41;46.41;100569.31;102754;1287;61413;-82
2023/06/27 01:07:56;;;;;;;;;;;;;;;27.40;46.60;100568.98;102809;1287;63886;-82
2023/06/27 01:10:37;;;;;;;;;;;;;;;27.40;46.53;100568.43;102890;1286;60033;-82
2023/06/27 01:13:10;;;;;;;;;;;;;;;27.41;46.51;100569.82;102867;1286;61822;-82
2023/06/27 01:15:35;;;;;;;;;;;;;;;27.40;46.55;100566.79;102825;1287;61169;-82
2023/06/27 01:18:01;;;;;;;;;;;;;;;27.40;46.70;100565.92;102792;1286;61437;-82
2023/06/27 01:20:27;;;;;;;;;;;;;;;27.40;46.35;100565.41;102819;1286;60065;-82
2023/06/27 01:23:01;;;;;;;;;;;;;;;27.40;46.36;100562.66;102847;1287;62161;-82
2023/06/27 01:25:29;;;;;;;;;;;;;;;27.40;46.51;100560.73;102956;1288;61320;-82
2023/06/27 01:27:55;;;;;;;;;;;;;;;27.40;46.59;100557.62;102940;1286;63637;-82
2023/06/27 01:30:20;;;;;;;;;;;;;;;27.40;46.61;100560.56;102886;1287;61351;-82
2023/06/27 01:32:47;;;;;;;;;;;;;;;27.40;46.44;100556.56;102814;1287;60204;-82
2023/06/27 01:35:14;;;;;;;;;;;;;;;27.39;46.55;100558.98;102867;1287;62186;-82
2023/06/27 01:37:46;;;;;;;;;;;;;;;27.39;46.60;100555.89;102840;1286;60083;-82
2023/06/27 01:40:11;;;;;;;;;;;;;;;27.39;46.39;100556.08;102825;1287;66666;-82
2023/06/27 01:42:38;;;;;;;;;;;;;;;27.39;46.29;100560.05;102869;1287;61437;-82
2023/06/27 01:45:04;;;;;;;;;;;;;;;27.39;46.47;100559.70;102800;1286;61246;-82
2023/06/27 01:47:29;;;;;;;;;;;;;;;27.38;46.60;100559.77;102808;1290;61276;-82
2023/06/27 01:49:55;;;;;;;;;;;;;;;27.39;46.72;100564.41;102852;1286;61384;-82
2023/06/27 01:52:20;;;;;;;;;;;;;;;27.39;46.48;100558.62;103119;1290;61387;-82
2023/06/27 01:54:46;;;;;;;;;;;;;;;27.38;46.40;100561.57;102827;1286;60057;-82
2023/06/27 01:57:12;;;;;;;;;;;;;;;27.38;46.55;100564.83;102811;1287;62104;-82
2023/06/27 01:59:37;;;;;;;;;;;;;;;27.39;46.55;100565.34;102927;1288;62257;-82
2023/06/27 02:02:03;;;;;;;;;;;;;;;27.38;46.40;100561.96;102906;1292;61438;-82
2023/06/27 02:04:29;;;;;;;;;;;;;;;27.38;46.60;100558.35;102873;1286;62149;-82
2023/06/27 02:06:54;;;;;;;;;;;;;;;27.38;46.40;100561.05;102976;1286;61390;-82
2023/06/27 02:09:20;;;;;;;;;;;;;;;27.38;46.60;100561.83;102904;1286;60022;-82
2023/06/27 02:11:46;;;;;;;;;;;;;;;27.37;46.82;100557.15;102833;1291;62282;-82
2023/06/27 02:14:11;;;;;;;;;;;;;;;27.37;46.61;100556.45;102830;1285;61440;-82
2023/06/27 02:16:37;;;;;;;;;;;;;;;27.37;46.52;100554.83;103263;1286;60010;-82
2023/06/27 02:19:02;;;;;;;;;;;;;;;27.37;46.48;100550.69;102784;1286;61510;-82
2023/06/27 02:21:28;;;;;;;;;;;;;;;27.37;46.73;100550.48;102841;1286;61403;-82
2023/06/27 02:23:53;;;;;;;;;;;;;;;27.37;46.62;100555.19;102856;1287;65142;-82
2023/06/27 02:26:19;;;;;;;;;;;;;;;27.37;46.64;100557.38;102854;1292;61421;-82
2023/06/27 02:28:45;;;;;;;;;;;;;;;27.37;46.58;100556.85;102788;1286;61349;-82
2023/06/27 02:31:10;;;;;;;;;;;;;;;27.37;46.55;100557.05;102787;1287;61386;-82
2023/06/27 02:33:36;;;;;;;;;;;;;;;27.37;46.78;100559.59;102911;1286;62318;-82
2023/06/27 02:36:02;;;;;;;;;;;;;;;27.37;46.43;100559.39;102797;1292;61411;-82
2023/06/27 02:38:28;;;;;;;;;;;;;;;27.37;46.55;100563.02;102823;1288;66821;-82
2023/06/27 02:40:54;;;;;;;;;;;;;;;27.37;46.63;100563.20;102955;1287;61349;-82
2023/06/27 02:43:19;;;;;;;;;;;;;;;27.36;46.70;100560.16;102916;1286;61428;-82
2023/06/27 02:45:45;;;;;;;;;;;;;;;27.36;46.53;100559.59;102758;1291;59707;-82
2023/06/27 02:48:10;;;;;;;;;;;;;;;27.36;46.57;100560.88;102875;1287;61348;-82
2023/06/27 02:50:36;;;;;;;;;;;;;;;27.36;46.57;100563.39;102825;1288;62289;-82
2023/06/27 02:53:01;;;;;;;;;;;;;;;27.36;46.57;100563.99;102788;1290;61446;-82
2023/06/27 02:55:27;;;;;;;;;;;;;;;27.36;46.46;100562.14;102767;1286;61424;-81
2023/06/27 02:57:52;;;;;;;;;;;;;;;27.36;46.42;100563.82;102774;1286;60173;-81
2023/06/27 03:00:18;;;;;;;;;;;;;;;27.36;46.55;100560.73;102831;1287;61376;-81
2023/06/27 03:02:43;;;;;;;;;;;;;;;27.36;46.47;100562.90;103067;1289;67267;-81
2023/06/27 03:05:08;;;;;;;;;;;;;;;27.36;46.60;100566.48;102922;1286;61456;-81
2023/06/27 03:07:34;;;;;;;;;;;;;;;27.36;46.54;100563.98;102821;1286;62272;-81
2023/06/27 03:09:59;;;;;;;;;;;;;;;27.36;46.61;100567.40;102793;1288;60288;-81
2023/06/27 03:12:25;;;;;;;;;;;;;;;27.35;46.71;100566.17;102931;1292;61496;-81
2023/06/27 03:14:50;;;;;;;;;;;;;;;27.36;46.54;100569.73;102803;1287;61274;-81
2023/06/27 03:17:16;;;;;;;;;;;;;;;27.36;46.52;100567.04;102758;1290;61921;-81
2023/06/27 03:19:41;;;;;;;;;;;;;;;27.36;46.47;100570.87;102811;1286;61382;-81
2023/06/27 03:22:07;;;;;;;;;;;;;;;27.36;46.60;100569.58;103032;1286;61403;-81
2023/06/27 03:24:32;;;;;;;;;;;;;;;27.36;46.60;100569.41;102761;1286;62285;-81
2023/06/27 03:26:57;;;;;;;;;;;;;;;27.36;46.48;100569.52;102759;1292;61402;-81
2023/06/27 03:29:23;;;;;;;;;;;;;;;27.36;46.56;100568.08;103231;1286;61386;-81
2023/06/27 03:31:49;;;;;;;;;;;;;;;27.36;46.45;100564.84;102887;1286;62221;-81
2023/06/27 03:34:14;;;;;;;;;;;;;;;27.36;46.71;100562.14;102809;1290;60539;-81
2023/06/27 03:36:40;;;;;;;;;;;;;;;27.36;46.63;100561.62;102869;1292;61418;-81
2023/06/27 03:39:05;;;;;;;;;;;;;;;27.36;46.72;100558.54;102982;1291;61390;-81
2023/06/27 03:41:31;;;;;;;;;;;;;;;27.36;46.42;100558.39;102761;1287;61478;-81
2023/06/27 03:43:56;;;;;;;;;;;;;;;27.36;46.64;100563.77;102816;1286;61434;-81
2023/06/27 03:46:22;;;;;;;;;;;;;;;27.36;46.54;100564.52;102815;1287;60042;-81
2023/06/27 03:48:51;;;;;;;;;;;;;;;27.36;46.66;100567.23;102959;1290;61528;-81
2023/06/27 03:51:17;;;;;;;;;;;;;;;27.35;46.54;100568.55;103132;1287;66788;-81
2023/06/27 03:53:42;;;;;;;;;;;;;;;27.36;46.50;100569.41;102788;1287;61357;-81
2023/06/27 03:56:07;;;;;;;;;;;;;;;27.35;46.61;100570.89;102733;1287;60200;-81
2023/06/27 03:58:33;;;;;;;;;;;;;;;27.36;46.81;100570.14;102811;1287;61400;-81
2023/06/27 04:00:58;;;;;;;;;;;;;;;27.36;46.63;100574.28;103115;1286;61425;-81
2023/06/27 04:03:24;;;;;;;;;;;;;;;27.35;46.53;100572.38;102919;1290;61386;-81
2023/06/27 04:05:49;;;;;;;;;;;;;;;27.35;46.33;100575.05;102820;1286;61258;-81
2023/06/27 04:08:14;;;;;;;;;;;;;;;27.35;46.76;100572.92;102761;1290;61450;-81
2023/06/27 04:10:42;;;;;;;;;;;;;;;27.35;46.81;100571.50;102963;1287;61169;-81
2023/06/27 04:13:08;;;;;;;;;;;;;;;27.34;46.78;100569.17;102774;1286;61242;-81
2023/06/27 04:15:39;;;;;;;;;;;;;;;27.35;46.76;100567.84;102853;1286;61262;-81
2023/06/27 04:18:05;;;;;;;;;;;;;;;27.35;46.59;100571.80;103036;1286;61359;-82
2023/06/27 04:20:30;;;;;;;;;;;;;;;27.36;46.70;100573.40;103097;1288;60090;-83
2023/06/27 04:22:56;;;;;;;;;;;;;;;27.35;46.57;100578.65;103230;1288;61273;-82
2023/06/27 04:25:21;;;;;;;;;;;;;;;27.36;46.37;100579.30;103619;1290;61376;-82
2023/06/27 04:27:46;;;;;;;;;;;;;;;27.37;46.49;100584.33;103279;1290;60012;-83
2023/06/27 04:30:12;;;;;;;;;;;;;;;27.37;46.49;100584.35;102780;1286;59969;-83
2023/06/27 04:32:38;;;;;;;;;;;;;;;27.37;46.36;100584.32;102770;1286;62278;-83
2023/06/27 04:35:04;;;;;;;;;;;;;;;27.37;46.36;100586.26;102807;1290;61371;-83
2023/06/27 04:37:29;;;;;;;;;;;;;;;27.38;46.36;100586.55;102848;1286;61250;-83
2023/06/27 04:39:55;;;;;;;;;;;;;;;27.39;46.14;100590.44;102774;1286;61464;-83
2023/06/27 04:42:20;;;;;;;;;;;;;;;27.40;45.98;100590.92;102845;1292;60081;-83
2023/06/27 04:44:46;;;;;;;;;;;;;;;27.40;46.05;100594.14;103000;1286;61409;-83
2023/06/27 04:47:11;;;;;;;;;;;;;;;27.40;46.11;100591.77;102828;1286;62289;-83
2023/06/27 04:49:37;;;;;;;;;;;;;;;27.41;46.00;100595.27;102721;1286;61470;-83
2023/06/27 04:52:02;;;;;;;;;;;;;;;27.42;45.95;100591.73;102758;1286;62301;-83
2023/06/27 04:54:28;;;;;;;;;;;;;;;27.43;45.84;100594.39;103124;1290;60331;-83
2023/06/27 04:56:53;;;;;;;;;;;;;;;27.44;45.97;100594.27;102792;1291;61490;-83
2023/06/27 04:59:19;;;;;;;;;;;;;;;27.45;45.86;100591.33;102803;1290;61266;-83
2023/06/27 05:01:45;;;;;;;;;;;;;;;27.46;45.51;100591.20;103078;1290;62390;-83
2023/06/27 05:04:10;;;;;;;;;;;;;;;27.47;45.81;100593.12;102941;1286;61378;-83
2023/06/27 05:06:36;;;;;;;;;;;;;;;27.47;45.65;100593.79;102789;1290;62182;-83
2023/06/27 05:09:02;;;;;;;;;;;;;;;27.47;45.47;100596.26;103124;1286;61414;-83
2023/06/27 05:11:28;;;;;;;;;;;;;;;27.49;45.46;100597.05;103132;1286;65560;-83
2023/06/27 05:13:53;;;;;;;;;;;;;;;27.50;45.63;100601.21;103003;1286;61261;-83
2023/06/27 05:16:19;;;;;;;;;;;;;;;27.51;45.41;100603.34;102887;1285;59995;-83
2023/06/27 05:18:45;;;;;;;;;;;;;;;27.51;45.23;100605.85;102989;1286;62070;-83
2023/06/27 05:21:10;;;;;;;;;;;;;;;27.52;45.16;100610.81;102967;1292;61429;-83
2023/06/27 05:23:36;;;;;;;;;;;;;;;27.52;45.14;100611.13;102830;1289;65996;-83
2023/06/27 05:26:02;;;;;;;;;;;;;;;27.53;45.13;100613.60;103006;1289;61387;-83
2023/06/27 05:28:28;;;;;;;;;;;;;;;27.53;45.14;100612.86;103190;1286;61430;-83
2023/06/27 05:30:53;;;;;;;;;;;;;;;27.54;45.02;100614.58;103317;1286;61375;-83
2023/06/27 05:33:19;;;;;;;;;;;;;;;27.54;45.08;100617.30;103643;1286;61151;-83
2023/06/27 05:35:44;;;;;;;;;;;;;;;27.55;44.93;100613.95;102912;1291;66855;-83
2023/06/27 05:38:09;;;;;;;;;;;;;;;27.55;44.80;100615.41;103266;1286;61323;-83
2023/06/27 05:40:35;;;;;;;;;;;;;;;27.55;44.79;100615.54;103452;1285;62164;-83
2023/06/27 05:43:01;;;;;;;;;;;;;;;27.56;44.75;100612.77;103175;1286;61369;-83
2023/06/27 05:45:26;;;;;;;;;;;;;;;27.56;44.46;100610.91;103259;1285;62233;-83
2023/06/27 05:47:52;;;;;;;;;;;;;;;27.57;44.46;100611.91;102928;1286;65986;-83
2023/06/27 05:50:18;;;;;;;;;;;;;;;27.58;44.73;100613.09;103401;1285;62264;-83
2023/06/27 05:52:43;;;;;;;;;;;;;;;27.58;44.38;100616.82;102916;1286;61409;-82
2023/06/27 05:55:09;;;;;;;;;;;;;;;27.59;44.38;100616.57;103236;1288;62165;-83
2023/06/27 05:57:35;;;;;;;;;;;;;;;27.59;44.66;100614.73;103002;1286;61488;-83
2023/06/27 06:00:00;;;;;;;;;;;;;;;27.59;44.57;100613.33;103274;1284;65855;-83
2023/06/27 06:02:26;;;;;;;;;;;;;;;27.59;44.61;100613.83;102851;1286;61468;-83
2023/06/27 06:04:54;;;;;;;;;;;;;;;27.60;44.37;100612.29;103827;1286;61322;-83
2023/06/27 06:07:20;;;;;;;;;;;;;;;27.61;44.53;100613.73;103763;1290;61375;-83
2023/06/27 06:09:45;;;;;;;;;;;;;;;27.62;44.56;100613.63;103542;1285;61395;-83
2023/06/27 06:12:11;;;;;;;;;;;;;;;27.62;44.43;100612.16;103561;1287;61399;-83
2023/06/27 06:14:36;;;;;;;;;;;;;;;27.62;44.41;100611.80;104018;1285;61422;-83
2023/06/27 06:17:02;;;;;;;;;;;;;;;27.62;44.47;100608.67;103911;1289;60191;-83
2023/06/27 06:19:27;;;;;;;;;;;;;;;27.63;44.57;100613.13;104060;1285;70848;-83
2023/06/27 06:21:53;;;;;;;;;;;;;;;27.64;44.49;100611.28;104455;1286;61425;-84
2023/06/27 06:24:18;;;;;;;;;;;;;;;27.64;44.28;100612.19;103583;1286;61401;-84
2023/06/27 06:26:44;;;;;;;;;;;;;;;27.63;44.55;100610.25;104176;1286;61395;-83
2023/06/27 06:29:13;;;;;;;;;;;;;;;27.64;44.39;100612.49;104969;1286;59407;-83
2023/06/27 06:31:41;;;;;;;;;;;;;;;27.64;44.27;100610.70;104592;1285;64802;-83
2023/06/27 06:34:06;;;;;;;;;;;;;;;27.64;44.20;100612.30;104386;1289;65684;-83
2023/06/27 06:36:32;;;;;;;;;;;;;;;27.65;44.17;100610.27;104792;1285;62316;-84
2023/06/27 06:38:58;;;;;;;;;;;;;;;27.64;44.46;100611.23;104552;1286;61416;-84
2023/06/27 06:41:24;;;;;;;;;;;;;;;27.64;44.30;100609.38;104387;1288;61362;-84
2023/06/27 06:43:50;;;;;;;;;;;;;;;27.65;44.29;100608.20;104774;1286;61398;-83
2023/06/27 06:46:15;;;;;;;;;;;;;;;27.66;44.39;100609.34;105121;1288;59836;-83
2023/06/27 06:48:41;;;;;;;;;;;;;;;27.68;44.35;100607.57;105020;1285;60186;-83
2023/06/27 06:51:06;;;;;;;;;;;;;;;27.69;44.25;100604.19;104256;1284;61426;-83
2023/06/27 06:53:32;;;;;;;;;;;;;;;27.71;44.51;100604.58;104666;1284;60029;-83
2023/06/27 06:55:57;;;;;;;;;;;;;;;27.71;44.32;100601.09;105158;1286;61364;-83
2023/06/27 06:58:23;;;;;;;;;;;;;;;27.71;44.32;100599.63;105194;1285;59366;-83
2023/06/27 07:00:49;;;;;;;;;;;;;;;27.72;44.33;100599.20;105107;1285;60117;-84
2023/06/27 07:03:15;;;;;;;;;;;;;;;27.73;44.26;100602.16;104992;1285;61263;-83
2023/06/27 07:05:41;;;;;;;;;;;;;;;27.74;44.18;100602.43;104800;1290;61433;-83
2023/06/27 07:08:07;;;;;;;;;;;;;;;27.74;44.11;100597.69;104561;1286;608421;-83
2023/06/27 07:10:32;;;;;;;;;;;;;;;27.74;44.20;100601.11;105460;1285;59981;-83
2023/06/27 07:12:59;;;;;;;;;;;;;;;27.75;44.27;100600.27;105713;1288;62213;-83
2023/06/27 07:15:25;;;;;;;;;;;;;;;27.76;44.04;100598.08;105702;1284;60435;-83
2023/06/27 07:17:51;;;;;;;;;;;;;;;27.75;44.26;100595.18;105979;1285;59961;-83
2023/06/27 07:20:16;;;;;;;;;;;;;;;27.77;44.12;100600.46;105348;1283;59979;-83
2023/06/27 07:22:42;;;;;;;;;;;;;;;27.78;44.01;100597.52;105203;1284;61392;-83
2023/06/27 07:25:07;;;;;;;;;;;;;;;27.79;44.16;100601.55;105177;1285;59962;-83
2023/06/27 07:27:33;;;;;;;;;;;;;;;27.80;44.00;100594.98;105076;1284;61259;-83
2023/06/27 07:29:58;;;;;;;;;;;;;;;27.79;43.90;100594.71;105246;1285;61356;-83
2023/06/27 07:32:24;;;;;;;;;;;;;;;27.80;43.99;100599.15;105586;1285;59988;-83
2023/06/27 07:34:49;;;;;;;;;;;;;;;27.80;43.99;100600.23;105206;1285;61254;-83
2023/06/27 07:37:15;;;;;;;;;;;;;;;27.79;43.80;100599.39;105068;1286;61276;-84
2023/06/27 07:39:41;;;;;;;;;;;;;;;27.80;43.83;100591.93;104598;1288;61384;-84
2023/06/27 07:42:07;;;;;;;;;;;;;;;27.80;43.76;100596.77;105111;1288;61374;-84
2023/06/27 07:44:33;;;;;;;;;;;;;;;27.80;43.67;100594.04;104364;1285;60049;-83
2023/06/27 07:46:59;;;;;;;;;;;;;;;27.79;43.76;100592.33;104304;1284;61792;-83
2023/06/27 07:49:24;;;;;;;;;;;;;;;27.80;43.61;100595.66;104797;1284;60052;-83
2023/06/27 07:51:51;;;;;;;;;;;;;;;27.80;43.53;100598.14;104410;1288;64098;-83
2023/06/27 07:54:17;;;;;;;;;;;;;;;27.81;43.28;100596.88;104191;1284;65765;-83
2023/06/27 07:56:43;;;;;;;;;;;;;;;27.81;43.44;100596.67;104600;1284;61380;-84
2023/06/27 07:59:08;;;;;;;;;;;;;;;27.80;43.35;100596.16;104296;1284;61354;-83
2023/06/27 08:01:34;;;;;;;;;;;;;;;27.81;43.19;100601.55;104019;1285;61347;-84
2023/06/27 08:04:00;;;;;;;;;;;;;;;27.80;43.30;100600.13;104233;1284;61381;-84
2023/06/27 08:06:25;;;;;;;;;;;;;;;27.81;43.19;100598.08;104817;1285;61423;-83
2023/06/27 08:08:50;;;;;;;;;;;;;;;27.80;43.26;100597.59;104235;1285;60105;-83
2023/06/27 08:11:17;;;;;;;;;;;;;;;27.81;43.12;100596.85;104793;1284;61340;-83
2023/06/27 08:13:43;;;;;;;;;;;;;;;27.82;43.09;100598.95;104857;1284;60023;-83
2023/06/27 08:16:09;;;;;;;;;;;;;;;27.81;43.18;100597.16;104010;1286;62259;-83
2023/06/27 08:18:34;;;;;;;;;;;;;;;27.81;43.08;100597.70;104266;1286;59588;-83
2023/06/27 08:21:00;;;;;;;;;;;;;;;27.81;43.18;100591.05;104560;1284;60146;-83
2023/06/27 08:23:26;;;;;;;;;;;;;;;27.81;43.05;100590.27;105085;1284;60059;-83
2023/06/27 08:25:52;;;;;;;;;;;;;;;27.81;43.16;100589.73;104115;1284;63877;-83
2023/06/27 08:28:17;;;;;;;;;;;;;;;27.82;43.12;100589.70;104074;1284;61088;-83
2023/06/27 08:30:43;;;;;;;;;;;;;;;27.81;43.02;100590.10;104062;1285;61398;-83
2023/06/27 08:33:08;;;;;;;;;;;;;;;27.82;42.97;100592.24;104653;1285;61255;-83
2023/06/27 08:35:34;;;;;;;;;;;;;;;27.82;43.12;100595.43;104155;1286;61408;-83
2023/06/27 08:37:59;;;;;;;;;;;;;;;27.82;43.01;100592.75;104012;1285;64762;-83
2023/06/27 08:40:25;;;;;;;;;;;;;;;27.81;42.76;100584.13;104001;1285;62226;-83
2023/06/27 08:42:51;;;;;;;;;;;;;;;27.82;43.00;100584.45;104441;1286;61475;-84
2023/06/27 08:45:16;;;;;;;;;;;;;;;27.82;42.76;100584.98;104288;1284;61391;-83
2023/06/27 08:47:42;;;;;;;;;;;;;;;27.81;42.96;100576.58;104309;1284;61262;-83
2023/06/27 08:50:08;;;;;;;;;;;;;;;27.81;42.80;100577.84;104103;1285;64037;-83
2023/06/27 08:52:38;;;;;;;;;;;;;;;27.81;42.89;100574.05;104617;1283;61384;-83
2023/06/27 08:55:05;;;;;;;;;;;;;;;27.82;42.88;100580.98;104049;1284;59968;-83
2023/06/27 08:57:31;;;;;;;;;;;;;;;27.81;42.79;100581.23;104488;1284;60221;-83
2023/06/27 08:59:56;;;;;;;;;;;;;;;27.82;42.72;100579.60;104931;1284;60065;-83
2023/06/27 09:02:22;;;;;;;;;;;;;;;27.82;42.65;100579.57;104121;1284;61279;-83
2023/06/27 09:04:47;;;;;;;;;;;;;;;27.81;42.80;100578.33;104547;1284;60016;-83
2023/06/27 09:07:14;;;;;;;;;;;;;;;27.81;42.75;100576.17;104959;1284;62298;-83
2023/06/27 09:09:39;;;;;;;;;;;;;;;27.82;42.76;100574.89;104428;1284;59952;-83
2023/06/27 09:12:06;;;;;;;;;;;;;;;27.81;42.58;100574.58;104194;1285;61517;-83
2023/06/27 09:14:31;;;;;;;;;;;;;;;27.82;42.91;100573.59;104338;1284;66801;-83
2023/06/27 09:16:57;;;;;;;;;;;;;;;27.82;42.67;100566.20;104939;1285;62078;-83
2023/06/27 09:19:22;;;;;;;;;;;;;;;27.81;42.45;100565.52;104361;1284;61274;-83
2023/06/27 09:21:50;;;;;;;;;;;;;;;27.80;42.58;100563.98;104176;1288;59993;-83
2023/06/27 09:24:17;;;;;;;;;;;;;;;27.81;42.41;100569.38;104197;1284;61199;-83
2023/06/27 09:26:42;;;;;;;;;;;;;;;27.80;42.35;100567.45;104504;1284;59749;-84
2023/06/27 09:29:08;;;;;;;;;;;;;;;27.81;42.38;100568.64;104841;1284;62210;-84
2023/06/27 09:31:34;;;;;;;;;;;;;;;27.80;42.48;100564.34;103748;1288;60199;-83
2023/06/27 09:34:04;;;;;;;;;;;;;;;27.80;42.20;100561.83;104199;1284;61330;-83
2023/06/27 09:36:31;;;;;;;;;;;;;;;27.80;42.31;100561.11;104300;1284;59965;-83
2023/06/27 09:38:59;;;;;;;;;;;;;;;27.81;42.25;100557.30;104807;1285;59912;-83
2023/06/27 09:41:24;;;;;;;;;;;;;;;27.80;42.06;100556.80;104619;1285;64623;-83
2023/06/27 09:43:50;;;;;;;;;;;;;;;27.80;42.40;100561.15;104684;1285;59389;-83
2023/06/27 09:46:16;;;;;;;;;;;;;;;27.80;42.39;100560.95;104850;1284;60087;-83
2023/06/27 09:48:41;;;;;;;;;;;;;;;27.80;41.95;100559.55;104685;1284;59992;-83
2023/06/27 09:51:08;;;;;;;;;;;;;;;27.80;42.22;100557.23;104896;1284;59956;-83
2023/06/27 09:53:34;;;;;;;;;;;;;;;27.79;41.97;100559.17;104608;1288;63745;-83
2023/06/27 09:56:01;;;;;;;;;;;;;;;27.80;41.87;100558.19;104461;1285;61358;-83
2023/06/27 09:58:27;;;;;;;;;;;;;;;27.80;41.75;100557.85;104746;1285;59999;-83
2023/06/27 10:00:53;;;;;;;;;;;;;;;27.80;41.92;100555.18;104847;1287;59928;-83
2023/06/27 10:03:20;;;;;;;;;;;;;;;27.80;41.89;100554.58;103373;1285;60072;-84
2023/06/27 10:05:46;;;;;;;;;;;;;;;27.80;41.81;100554.61;103088;1285;62304;-84
2023/06/27 10:08:12;;;;;;;;;;;;;;;27.80;41.83;100553.15;103000;1285;61386;-83
2023/06/27 10:10:38;;;;;;;;;;;;;;;27.80;41.81;100553.31;103291;1284;61278;-84
2023/06/27 10:13:03;;;;;;;;;;;;;;;27.80;41.71;100552.47;104163;1284;61383;-84
2023/06/27 10:15:29;;;;;;;;;;;;;;;27.80;41.64;100553.02;104326;1286;61970;-84
2023/06/27 10:17:54;;;;;;;;;;;;;;;27.80;41.77;100546.30;104756;1286;61334;-84
2023/06/27 10:20:20;;;;;;;;;;;;;;;27.79;41.81;100548.70;104546;1286;60015;-83
2023/06/27 10:22:45;;;;;;;;;;;;;;;27.79;41.59;100547.85;104303;1284;59439;-84
2023/06/27 10:25:11;;;;;;;;;;;;;;;27.79;41.75;100542.36;104171;1286;60005;-84
2023/06/27 10:27:39;;;;;;;;;;;;;;;27.79;41.64;100540.80;104493;1286;61409;-84
2023/06/27 10:30:07;;;;;;;;;;;;;;;27.79;41.48;100533.57;103987;1285;61351;-83
2023/06/27 10:32:43;;;;;;;;;;;;;;;27.79;41.50;100528.83;103965;1287;62318;-83
2023/06/27 10:35:26;;;;;;;;;;;;;;;27.79;41.61;100529.23;103929;1286;64628;-83
2023/06/27 10:38:10;;;;;;;;;;;;;;;27.79;41.61;100526.15;104384;1286;65685;-83
2023/06/27 10:40:55;;;;;;;;;;;;;;;27.79;41.35;100526.86;103950;1284;61266;-83
2023/06/27 10:43:47;;;;;;;;;;;;;;;27.79;41.23;100527.04;104217;1284;60276;-83
2023/06/27 10:46:19;;;;;;;;;;;;;;;27.79;41.15;100519.27;104319;1284;64156;-83
2023/06/27 10:48:46;;;;;;;;;;;;;;;27.79;41.29;100512.59;104386;1285;65857;-83
2023/06/27 10:51:14;;;;;;;;;;;;;;;27.79;41.17;100513.13;104680;1288;61370;-83
2023/06/27 10:53:42;;;;;;;;;;;;;;;27.79;41.14;100512.05;104553;1284;61359;-83
2023/06/27 10:56:14;;;;;;;;;;;;;;;27.79;40.99;100511.16;104968;1284;63658;-83
2023/06/27 10:58:44;;;;;;;;;;;;;;;27.79;41.17;100507.52;104173;1284;67097;-83
2023/06/27 11:01:10;;;;;;;;;;;;;;;27.80;41.05;100508.00;104199;1284;61764;-83
2023/06/27 11:03:37;;;;;;;;;;;;;;;27.79;41.05;100501.71;103906;1284;60056;-84
2023/06/27 11:06:04;;;;;;;;;;;;;;;27.79;40.82;100498.97;104460;1284;63755;-84
2023/06/27 11:08:29;;;;;;;;;;;;;;;27.79;41.06;100497.37;103210;1285;66736;-84
2023/06/27 11:11:04;;;;;;;;;;;;;;;27.80;41.04;100501.27;103679;1284;60046;-84
2023/06/27 11:13:34;;;;;;;;;;;;;;;27.80;40.94;100497.48;104107;1284;61176;-84
2023/06/27 11:15:59;;;;;;;;;;;;;;;27.80;40.90;100494.94;103924;1284;64850;-84
2023/06/27 11:18:25;;;;;;;;;;;;;;;27.80;40.93;100493.14;103865;1284;62157;-83
2023/06/27 11:20:51;;;;;;;;;;;;;;;27.81;40.74;100489.44;104234;1284;61363;-83
2023/06/27 11:23:16;;;;;;;;;;;;;;;27.81;40.75;100486.94;103936;1284;61390;-83
2023/06/27 11:25:42;;;;;;;;;;;;;;;27.80;40.73;100483.55;103657;1284;61485;-83
2023/06/27 11:28:08;;;;;;;;;;;;;;;27.79;40.91;100482.89;103865;1284;60307;-83
2023/06/27 11:30:35;;;;;;;;;;;;;;;27.79;40.76;100481.30;104091;1286;68054;-83
2023/06/27 11:33:02;;;;;;;;;;;;;;;27.79;40.72;100479.30;104180;1285;62244;-83
2023/06/27 11:35:28;;;;;;;;;;;;;;;27.79;40.48;100480.23;103980;1284;61421;-83
2023/06/27 11:37:54;;;;;;;;;;;;;;;27.79;40.57;100477.84;103891;1284;64806;-83
2023/06/27 11:40:20;;;;;;;;;;;;;;;27.79;40.53;100461.20;104396;1284;61707;-83
2023/06/27 11:42:46;;;;;;;;;;;;;;;27.79;40.64;100456.66;104012;1284;61366;-83
2023/06/27 11:45:11;;;;;;;;;;;;;;;27.80;40.58;100457.21;104032;1284;61261;-83
2023/06/27 11:47:38;;;;;;;;;;;;;;;27.80;40.44;100448.73;104239;1286;61324;-83
2023/06/27 11:50:04;;;;;;;;;;;;;;;27.80;40.56;100447.78;104699;1287;61388;-83
2023/06/27 11:52:31;;;;;;;;;;;;;;;27.80;40.70;100441.06;104006;1284;61424;-83
2023/06/27 11:54:56;;;;;;;;;;;;;;;27.81;40.44;100438.25;103684;1285;61383;-83
2023/06/27 11:57:22;;;;;;;;;;;;;;;27.81;40.49;100436.05;104416;1285;60062;-83
2023/06/27 11:59:50;;;;;;;;;;;;;;;27.81;40.38;100435.67;103708;1284;63631;-83
2023/06/27 12:02:16;;;;;;;;;;;;;;;27.81;40.32;100432.05;104518;1284;66742;-83
2023/06/27 12:04:42;;;;;;;;;;;;;;;27.82;40.29;100428.92;104600;1284;61117;-83
2023/06/27 12:07:17;;;;;;;;;;;;;;;27.83;40.22;100435.71;105289;1284;60464;-83
2023/06/27 12:09:43;;;;;;;;;;;;;;;27.82;40.42;100432.66;103999;1285;63991;-83
2023/06/27 12:12:08;;;;;;;;;;;;;;;27.82;40.24;100425.77;104455;1284;61012;-83
2023/06/27 12:14:34;;;;;;;;;;;;;;;27.83;40.05;100425.75;104347;1284;59553;-83
2023/06/27 12:17:02;;;;;;;;;;;;;;;27.84;40.22;100429.12;103722;1284;61417;-83
2023/06/27 12:19:28;;;;;;;;;;;;;;;27.84;40.13;100425.28;103790;1284;60126;-83
2023/06/27 12:21:54;;;;;;;;;;;;;;;27.84;39.98;100424.74;104632;1284;61389;-83